Meishomaru — JD3044 — position and weather

sailwx.info

Track history (hours):
 
Tides and Currents Weather Stations Pressure Air Temp Water Temp Dewpoint Dewpoint Depression Visibility Wind Speed Wind Dir Waves Ship Positions

Meishomaru

Last reported at 2015-Jan-29 10:16 UTC. Time now 2015-Jan-31 19:15 UTC.
Position N 34°49' E 139°07'.

Length 68 m; draft 3.6 m.

Type: Tanker. MMSI: 431001216.

Date/timePositionNaut miles runAvg speedWind from/ knotsBaromVisibWave heightAir tempDewpointWater temp
2015-Jan-29 10:16N 34°49' E 139°07'912.0
2015-Jan-29 09:32N 34°56' E 139°15'1211.4
2015-Jan-29 08:30N 35°01' E 139°27'1112.1
2015-Jan-29 07:33N 35°06' E 139°40'1111.1
2015-Jan-29 06:33N 35°17' E 139°45'1010.2
2015-Jan-29 05:33N 35°27' E 139°47'7 1.0
2015-Jan-28 22:31N 35°29' E 139°55'0 0.2
2015-Jan-28 21:20N 35°29' E 139°55'0 0.0
2015-Jan-28 20:14N 35°29' E 139°55'0 0.0
2015-Jan-28 19:08N 35°29' E 139°55'1 0.7
2015-Jan-28 17:29N 35°29' E 139°53'910.1
2015-Jan-28 16:33N 35°22' E 139°45'1010.2
2015-Jan-28 15:33N 35°12' E 139°47'1110.6
2015-Jan-28 14:33N 35°02' E 139°42'1211.0
2015-Jan-28 13:28N 34°56' E 139°30'239 9.8
2015-Jan-27 13:10N 34°06' E 134°46'223 4.6
2015-Jan-25 12:33N 34°53' E 139°11'1311.9
2015-Jan-25 11:27N 34°59' E 139°25'1112.1
2015-Jan-25 10:33N 35°05' E 139°37'1211.9
2015-Jan-25 09:33N 35°13' E 139°46'1111.1
2015-Jan-25 08:33N 35°24' E 139°43'7 6.3
2015-Jan-25 07:25N 35°31' E 139°46'0 0.0
2015-Jan-25 06:31N 35°31' E 139°46'0 0.0
2015-Jan-25 05:07N 35°31' E 139°46'0 0.0
2015-Jan-25 04:19N 35°31' E 139°46'1 1.5
2015-Jan-25 03:33N 35°30' E 139°47'2 2.0
2015-Jan-25 02:33N 35°28' E 139°46'0 0.0
2015-Jan-25 01:33N 35°28' E 139°46'0 0.0
2015-Jan-25 00:33N 35°28' E 139°46'0 0.0
2015-Jan-24 23:33N 35°28' E 139°46'0 0.0
2015-Jan-24 22:33N 35°28' E 139°46'0 0.0
2015-Jan-24 21:33N 35°28' E 139°46'0 0.0
2015-Jan-24 20:33N 35°28' E 139°46'0 0.0
2015-Jan-24 19:33N 35°28' E 139°46'0 0.0
2015-Jan-24 18:33N 35°28' E 139°46'0 0.0
2015-Jan-24 17:33N 35°28' E 139°46'0 0.0
2015-Jan-24 16:33N 35°28' E 139°46'0 0.0
2015-Jan-24 15:33N 35°28' E 139°46'0 0.0
2015-Jan-24 14:33N 35°28' E 139°46'0 0.0
2015-Jan-24 13:33N 35°28' E 139°46'0 0.0
2015-Jan-24 12:33N 35°28' E 139°46'0 0.0
2015-Jan-24 11:33N 35°28' E 139°46'0 0.0
2015-Jan-24 10:33N 35°28' E 139°46'0 0.0
2015-Jan-24 09:33N 35°28' E 139°46'0 0.0
2015-Jan-24 08:27N 35°28' E 139°46'0 0.0
2015-Jan-24 07:33N 35°28' E 139°46'0 0.0
2015-Jan-24 06:33N 35°28' E 139°46'0 0.0
2015-Jan-24 05:33N 35°28' E 139°46'0 0.0
2015-Jan-24 04:30N 35°28' E 139°46'0 0.0
2015-Jan-24 03:33N 35°28' E 139°46'0 0.0
2015-Jan-24 02:33N 35°28' E 139°46'0 0.0
2015-Jan-24 01:30N 35°28' E 139°46'0 0.0
2015-Jan-24 00:33N 35°28' E 139°46'0 0.0
2015-Jan-23 23:33N 35°28' E 139°46'0 0.0
2015-Jan-23 22:33N 35°28' E 139°46'0 0.0
2015-Jan-23 21:33N 35°28' E 139°46'0 0.0
2015-Jan-23 20:33N 35°28' E 139°46'0 0.0
2015-Jan-23 19:33N 35°28' E 139°46'0 0.0
2015-Jan-23 18:33N 35°28' E 139°46'0 0.0
2015-Jan-23 17:27N 35°28' E 139°46'0 0.0
2015-Jan-23 16:30N 35°28' E 139°46'0 0.0
2015-Jan-23 15:33N 35°28' E 139°46'0 0.0
2015-Jan-23 14:33N 35°28' E 139°46'0 0.0
2015-Jan-23 13:33N 35°28' E 139°46'0 0.0
2015-Jan-23 12:27N 35°28' E 139°46'0 0.1
2015-Jan-23 11:30N 35°28' E 139°46'0 0.1
2015-Jan-23 10:33N 35°28' E 139°46'4 3.8
2015-Jan-23 09:33N 35°25' E 139°47'10 9.6
2015-Jan-23 08:33N 35°15' E 139°47'1110.7
2015-Jan-23 07:33N 35°05' E 139°44'1111.2
2015-Jan-23 06:33N 34°58' E 139°33'  
Track history (hours):
 
Tides and Currents Weather Stations Pressure Air Temp Water Temp Dewpoint Dewpoint Depression Visibility Wind Speed Wind Dir Waves Ship Positions

Meishomaru

Last reported at 2015-Jan-29 10:16 UTC. Time now 2015-Jan-31 19:15 UTC.
Position N 34°49' E 139°07'.

Length 68 m; draft 3.6 m.

Type: Tanker. MMSI: 431001216.

Date/timePositionNaut miles runAvg speedWind from/ knotsBaromVisibWave heightAir tempDewpointWater temp
2015-Jan-29 10:16N 34°49' E 139°07'912.0
2015-Jan-29 09:32N 34°56' E 139°15'1211.4
2015-Jan-29 08:30N 35°01' E 139°27'1112.1
2015-Jan-29 07:33N 35°06' E 139°40'1111.1
2015-Jan-29 06:33N 35°17' E 139°45'1010.2
2015-Jan-29 05:33N 35°27' E 139°47'7 1.0
2015-Jan-28 22:31N 35°29' E 139°55'0 0.2
2015-Jan-28 21:20N 35°29' E 139°55'0 0.0
2015-Jan-28 20:14N 35°29' E 139°55'0 0.0
2015-Jan-28 19:08N 35°29' E 139°55'1 0.7
2015-Jan-28 17:29N 35°29' E 139°53'910.1
2015-Jan-28 16:33N 35°22' E 139°45'1010.2
2015-Jan-28 15:33N 35°12' E 139°47'1110.6
2015-Jan-28 14:33N 35°02' E 139°42'1211.0
2015-Jan-28 13:28N 34°56' E 139°30'239 9.8
2015-Jan-27 13:10N 34°06' E 134°46'223 4.6
2015-Jan-25 12:33N 34°53' E 139°11'1311.9
2015-Jan-25 11:27N 34°59' E 139°25'1112.1
2015-Jan-25 10:33N 35°05' E 139°37'1211.9
2015-Jan-25 09:33N 35°13' E 139°46'1111.1
2015-Jan-25 08:33N 35°24' E 139°43'7 6.3
2015-Jan-25 07:25N 35°31' E 139°46'0 0.0
2015-Jan-25 06:31N 35°31' E 139°46'0 0.0
2015-Jan-25 05:07N 35°31' E 139°46'0 0.0
2015-Jan-25 04:19N 35°31' E 139°46'1 1.5
2015-Jan-25 03:33N 35°30' E 139°47'2 2.0
2015-Jan-25 02:33N 35°28' E 139°46'0 0.0
2015-Jan-25 01:33N 35°28' E 139°46'0 0.0
2015-Jan-25 00:33N 35°28' E 139°46'0 0.0
2015-Jan-24 23:33N 35°28' E 139°46'0 0.0
2015-Jan-24 22:33N 35°28' E 139°46'0 0.0
2015-Jan-24 21:33N 35°28' E 139°46'0 0.0
2015-Jan-24 20:33N 35°28' E 139°46'0 0.0
2015-Jan-24 19:33N 35°28' E 139°46'0 0.0
2015-Jan-24 18:33N 35°28' E 139°46'0 0.0
2015-Jan-24 17:33N 35°28' E 139°46'0 0.0
2015-Jan-24 16:33N 35°28' E 139°46'0 0.0
2015-Jan-24 15:33N 35°28' E 139°46'0 0.0
2015-Jan-24 14:33N 35°28' E 139°46'0 0.0
2015-Jan-24 13:33N 35°28' E 139°46'0 0.0
2015-Jan-24 12:33N 35°28' E 139°46'0 0.0
2015-Jan-24 11:33N 35°28' E 139°46'0 0.0
2015-Jan-24 10:33N 35°28' E 139°46'0 0.0
2015-Jan-24 09:33N 35°28' E 139°46'0 0.0
2015-Jan-24 08:27N 35°28' E 139°46'0 0.0
2015-Jan-24 07:33N 35°28' E 139°46'0 0.0
2015-Jan-24 06:33N 35°28' E 139°46'0 0.0
2015-Jan-24 05:33N 35°28' E 139°46'0 0.0
2015-Jan-24 04:30N 35°28' E 139°46'0 0.0
2015-Jan-24 03:33N 35°28' E 139°46'0 0.0
2015-Jan-24 02:33N 35°28' E 139°46'0 0.0
2015-Jan-24 01:30N 35°28' E 139°46'0 0.0
2015-Jan-24 00:33N 35°28' E 139°46'0 0.0
2015-Jan-23 23:33N 35°28' E 139°46'0 0.0
2015-Jan-23 22:33N 35°28' E 139°46'0 0.0
2015-Jan-23 21:33N 35°28' E 139°46'0 0.0
2015-Jan-23 20:33N 35°28' E 139°46'0 0.0
2015-Jan-23 19:33N 35°28' E 139°46'0 0.0
2015-Jan-23 18:33N 35°28' E 139°46'0 0.0
2015-Jan-23 17:27N 35°28' E 139°46'0 0.0
2015-Jan-23 16:30N 35°28' E 139°46'0 0.0
2015-Jan-23 15:33N 35°28' E 139°46'0 0.0
2015-Jan-23 14:33N 35°28' E 139°46'0 0.0
2015-Jan-23 13:33N 35°28' E 139°46'0 0.0
2015-Jan-23 12:27N 35°28' E 139°46'0 0.1
2015-Jan-23 11:30N 35°28' E 139°46'0 0.1
2015-Jan-23 10:33N 35°28' E 139°46'4 3.8
2015-Jan-23 09:33N 35°25' E 139°47'10 9.6
2015-Jan-23 08:33N 35°15' E 139°47'1110.7
2015-Jan-23 07:33N 35°05' E 139°44'1111.2
2015-Jan-23 06:33N 34°58' E 139°33'  

Dump ship's entire track history